Change the Weather History Date:

Monday, November 25, 2013

  Actual Average (KFLO) Record (KFLO)
Temperature  
Mean Temperature 32 °F 53 °F  
Max Temperature 44 °F 64 °F 83 °F (1973)
Min Temperature 19 °F 41 °F 17 °F (1950)
Degree Days  
Heating Degree Days 34 13  
Month to date heating degree days 237  
Since 1 July heating degree days 354  
Cooling Degree Days 0 0  
Month to date cooling degree days 16  
Year to date cooling degree days 2058  
Moisture  
Dew Point 10 °F    
Average Humidity 45    
Maximum Humidity 93    
Minimum Humidity 15    
Precipitation  
Precipitation 0.00 in 0.09 in 1.28 in (1972)
Month to date precipitation 2.21  
Year to date precipitation 39.44  
Sea Level Pressure  
Sea Level Pressure 30.50 in    
Wind  
Wind Speed - (North)    
Max Wind Speed -    
Max Gust Speed -    
Visibility 10 miles    
Events      
T = Trace of Precipitation, MM = Missing Value Source: NWS Daily Summary

Daily Weather History Graph

Daily Weather History Graph

Search for Another Location

Airport or City:

Trip Planner

Search our weather history database for the weather conditions in past years. The results will help you decide how hot, cold, wet, or windy it might be!

Date:

Astronomy

Nov. 25, 2013 Rise Set
Actual Time 7:03 AM EST 5:10 PM EST
Civil Twilight 6:36 AM EST 5:37 PM EST
Nautical Twilight 6:05 AM EST 6:08 PM EST
Astronomical Twilight 5:34 AM EST 6:38 PM EST
Moon No Moon Rise 12:29 PM EST (11/25)
Length of Visible Light 11h 01m
Length of Day
10h 06m
Waning Gibbous, 51% of the Moon is Illuminated
Nov 25
Waning Gibbous
Nov 25
Last Quarter
Dec 2
New
Dec 9
First Quarter
Dec 17
Full

Hourly Weather History & Observations

Time (EST) Temp. Dew Point Humidity Pressure Visibility Wind Dir Wind Speed Gust Speed Precip Events Conditions
12:15 AM 24.8 °F 10.4 °F 54% 30.53 in 10.0 mi North - - N/A   Clear
12:35 AM 24.8 °F 10.4 °F 54% 30.53 in 10.0 mi North - - N/A   Clear
12:55 AM 26.6 °F 8.6 °F 47% 30.54 in 10.0 mi North - - N/A   Clear
1:15 AM 24.8 °F 10.4 °F 54% 30.54 in 10.0 mi North - - N/A   Clear
1:35 AM 23.0 °F 10.4 °F 59% 30.54 in 10.0 mi North - - N/A   Clear
1:55 AM 24.8 °F 12.2 °F 59% 30.55 in 10.0 mi North - - N/A   Clear
2:15 AM 23.0 °F 14.0 °F 68% 30.54 in 10.0 mi North - - N/A   Clear
2:35 AM 21.2 °F 14.0 °F 74% 30.54 in 10.0 mi North - - N/A   Clear
2:55 AM 23.0 °F 14.0 °F 68% 30.54 in 10.0 mi North - - N/A   Clear
3:15 AM 23.0 °F 12.2 °F 63% 30.55 in 10.0 mi North - - N/A   Clear
3:35 AM 19.4 °F 14.0 °F 80% 30.54 in 10.0 mi North - - N/A   Clear
3:55 AM 19.4 °F 14.0 °F 80% 30.55 in 10.0 mi North - - N/A   Clear
4:15 AM 21.2 °F 12.2 °F 68% 30.55 in 10.0 mi North - - N/A   Clear
4:35 AM 19.4 °F 14.0 °F 80% 30.55 in 10.0 mi North - - N/A   Clear
4:55 AM 21.2 °F 15.8 °F 80% 30.55 in 10.0 mi North - - N/A   Clear
5:15 AM 19.4 °F 15.8 °F 86% 30.55 in 10.0 mi North - - N/A   Clear
5:35 AM 21.2 °F 15.8 °F 80% 30.56 in 10.0 mi North - - N/A   Clear
5:55 AM 19.4 °F 15.8 °F 86% 30.55 in 10.0 mi North - - N/A   Clear
6:15 AM 19.4 °F 15.8 °F 86% 30.55 in 10.0 mi North - - N/A   Clear
6:35 AM 19.4 °F 17.6 °F 93% 30.56 in 10.0 mi North - - N/A   Clear
6:55 AM 21.2 °F 14.0 °F 74% 30.56 in 10.0 mi North - - N/A   Clear
7:15 AM 19.4 °F 15.8 °F 86% 30.57 in 10.0 mi North - - N/A   Clear
7:35 AM 19.4 °F 15.8 °F 86% 30.56 in 10.0 mi North - - N/A   Clear
7:55 AM 23.0 °F 15.8 °F 74% 30.57 in 10.0 mi North - - N/A   Clear
8:15 AM 23.0 °F 15.8 °F 74% 30.57 in 10.0 mi North - - N/A   Clear
8:35 AM 24.8 °F 15.8 °F 69% 30.57 in 10.0 mi North - - N/A   Clear
8:55 AM 26.6 °F 14.0 °F 59% 30.58 in 10.0 mi North - - N/A   Clear
9:15 AM 26.6 °F 10.4 °F 51% 30.59 in 10.0 mi North - - N/A   Clear
9:35 AM 28.4 °F 10.4 °F 47% 30.59 in 10.0 mi North - - N/A   Clear
9:55 AM 32.0 °F 8.6 °F 38% 30.60 in 10.0 mi North - - N/A   Clear
10:15 AM 32.0 °F 6.8 °F 35% 30.60 in 10.0 mi North - - N/A   Clear
10:35 AM 33.8 °F 5.0 °F 30% 30.59 in 10.0 mi North - - N/A   Clear
10:55 AM 35.6 °F 5.0 °F 28% 30.58 in 10.0 mi North - - N/A   Clear
11:15 AM 35.6 °F 3.2 °F 26% 30.57 in 10.0 mi North - - N/A   Clear
11:35 AM 37.4 °F 3.2 °F 24% 30.55 in 10.0 mi North - - N/A   Clear
11:55 AM 37.4 °F 3.2 °F 24% 30.54 in 10.0 mi North - - N/A   Clear
12:15 PM 39.2 °F 5.0 °F 24% 30.53 in 10.0 mi North - - N/A   Clear
12:35 PM 41.0 °F 5.0 °F 23% 30.50 in 10.0 mi North - - N/A   Clear
12:55 PM 41.0 °F 5.0 °F 23% 30.50 in 10.0 mi North - - N/A   Clear
1:15 PM 41.0 °F 1.4 °F 19% 30.49 in 10.0 mi North - - N/A   Clear
1:35 PM 41.0 °F 3.2 °F 21% 30.48 in 10.0 mi North - - N/A   Clear
1:55 PM 42.8 °F 1.4 °F 18% 30.47 in 10.0 mi North - - N/A   Clear
2:15 PM 44.6 °F 1.4 °F 17% 30.46 in 10.0 mi North - - N/A   Clear
2:35 PM 44.6 °F -0.4 °F 15% 30.46 in 10.0 mi North - - N/A   Clear
2:55 PM 44.6 °F -0.4 °F 15% 30.45 in 10.0 mi North - - N/A   Clear
3:15 PM 42.8 °F -0.4 °F 16% 30.44 in 10.0 mi North - - N/A   Clear
3:35 PM 42.8 °F 1.4 °F 18% 30.44 in 10.0 mi North - - N/A   Clear
3:55 PM 44.6 °F 1.4 °F 17% 30.43 in 10.0 mi North - - N/A   Clear
4:15 PM 41.0 °F 3.2 °F 21% 30.43 in 10.0 mi North - - N/A   Clear
4:35 PM 41.0 °F 5.0 °F 23% 30.43 in 10.0 mi North - - N/A   Clear
4:55 PM 39.2 °F 5.0 °F 24% 30.43 in 10.0 mi North - - N/A   Clear
5:15 PM 37.4 °F 14.0 °F 38% 30.44 in 10.0 mi North - - N/A   Clear
5:35 PM 37.4 °F 12.2 °F 36% 30.44 in 10.0 mi North - - N/A   Clear
5:55 PM 35.6 °F 14.0 °F 41% 30.45 in 10.0 mi North - - N/A   Clear
6:15 PM 33.8 °F 14.0 °F 44% 30.43 in 10.0 mi North - - N/A   Clear
6:35 PM 33.8 °F 15.8 °F 48% 30.43 in 10.0 mi North - - N/A   Clear
6:55 PM 35.6 °F 17.6 °F 48% 30.44 in 10.0 mi North - - N/A   Partly Cloudy
7:15 PM 37.4 °F 15.8 °F 41% 30.44 in 10.0 mi North - - N/A   Mostly Cloudy
7:35 PM 37.4 °F 12.2 °F 36% 30.44 in 10.0 mi North - - N/A   Overcast
7:55 PM 37.4 °F 14.0 °F 38% 30.44 in 10.0 mi North - - N/A   Overcast
8:15 PM 39.2 °F 8.6 °F 28% 30.44 in 10.0 mi North - - N/A   Overcast
8:35 PM 39.2 °F 8.6 °F 28% 30.42 in 10.0 mi North - - N/A   Overcast
8:55 PM 39.2 °F 8.6 °F 28% 30.43 in 10.0 mi North - - N/A   Overcast
9:15 PM 39.2 °F 8.6 °F 28% 30.40 in 10.0 mi North - - N/A   Overcast
9:35 PM 39.2 °F 6.8 °F 26% 30.40 in 10.0 mi North - - N/A   Overcast
9:55 PM 39.2 °F 8.6 °F 28% 30.39 in 10.0 mi North - - N/A   Overcast
10:15 PM 39.2 °F 8.6 °F 28% 30.38 in 10.0 mi North - - N/A   Overcast
10:35 PM 39.2 °F 8.6 °F 28% 30.38 in 10.0 mi North - - N/A   Overcast
10:55 PM 39.2 °F 10.4 °F 31% 30.39 in 10.0 mi North - - N/A   Overcast
11:15 PM 39.2 °F 12.2 °F 33% 30.37 in 10.0 mi North - - N/A   Overcast
11:35 PM 37.4 °F 10.4 °F 33% 30.35 in 10.0 mi North - - N/A   Mostly Cloudy
11:55 PM 37.4 °F 10.4 °F 33% 30.35 in 10.0 mi North - - N/A   Mostly Cloudy